createdAt,value
2023-01-29T00:01:18.503Z,100380.56
2023-01-29T00:03:52.374Z,100382.03
2023-01-29T00:06:25.148Z,100378.75
2023-01-29T00:08:58.553Z,100389.16
2023-01-29T00:11:32.009Z,100385.03
2023-01-29T00:14:05.210Z,100386.94
2023-01-29T00:16:39.508Z,100387.75
2023-01-29T00:19:12.348Z,100398.22
2023-01-29T00:21:45.133Z,100401.19
2023-01-29T00:24:17.982Z,100399.63
2023-01-29T00:26:51.177Z,100401.38
2023-01-29T00:29:23.984Z,100393.88
2023-01-29T00:31:58.235Z,100388.09
2023-01-29T00:34:31.098Z,100392.78
2023-01-29T00:37:09.115Z,100387.25
2023-01-29T00:39:47.869Z,100379.09
2023-01-29T00:42:38.746Z,100381.13
2023-01-29T00:45:11.897Z,100376.81
2023-01-29T00:47:46.171Z,100375.47
2023-01-29T00:50:19.638Z,100373.91
2023-01-29T00:52:54.837Z,100371.50
2023-01-29T00:55:28.000Z,100369.91
2023-01-29T00:58:00.823Z,100373.75
2023-01-29T01:00:33.959Z,100362.91
2023-01-29T01:03:07.273Z,100354.94
2023-01-29T01:05:42.647Z,100352.31
2023-01-29T01:08:33.027Z,100356.78
2023-01-29T01:11:06.557Z,100354.66
2023-01-29T01:13:39.426Z,100357.94
2023-01-29T01:16:12.817Z,100349.31
2023-01-29T01:18:48.325Z,100359.63
2023-01-29T01:21:21.067Z,100356.97
2023-01-29T01:23:53.877Z,100349.81
2023-01-29T01:26:26.639Z,100358.28
2023-01-29T01:28:59.600Z,100360.38
2023-01-29T01:31:32.635Z,100357.59
2023-01-29T01:34:07.148Z,100368.13
2023-01-29T01:36:41.361Z,100364.75
2023-01-29T01:39:14.140Z,100364.66
2023-01-29T01:41:47.250Z,100356.66
2023-01-29T01:45:00.651Z,100358.88
2023-01-29T01:47:39.418Z,100371.88
2023-01-29T01:50:19.956Z,100363.47
2023-01-29T01:52:56.849Z,100365.31
2023-01-29T01:55:34.259Z,100354.75
2023-01-29T01:58:11.402Z,100356.16
2023-01-29T02:00:44.535Z,100361.38
2023-01-29T02:03:38.338Z,100357.97
2023-01-29T02:06:29.896Z,100353.88
2023-01-29T02:09:24.220Z,100353.94
2023-01-29T02:11:57.352Z,100352.66
2023-01-29T02:14:31.948Z,100344.13
2023-01-29T02:17:04.879Z,100348.56
2023-01-29T02:19:46.700Z,100344.94
2023-01-29T02:22:42.971Z,100343.69
2023-01-29T02:25:49.043Z,100345.25
2023-01-29T02:28:41.335Z,100341.16
2023-01-29T02:31:21.042Z,100346.50
2023-01-29T02:34:05.085Z,100346.97
2023-01-29T02:36:46.200Z,100349.63
2023-01-29T02:39:29.804Z,100338.94
2023-01-29T02:42:12.737Z,100346.06
2023-01-29T02:44:53.157Z,100339.84
2023-01-29T02:47:31.898Z,100334.16
2023-01-29T02:50:14.347Z,100339.13
2023-01-29T02:52:56.867Z,100343.31
2023-01-29T02:55:35.443Z,100334.34
2023-01-29T02:58:12.787Z,100330.78
2023-01-29T03:00:50.526Z,100325.88
2023-01-29T03:03:30.268Z,100330.66
2023-01-29T03:06:07.372Z,100334.16
2023-01-29T03:08:45.547Z,100325.84
2023-01-29T03:11:19.365Z,100323.75
2023-01-29T03:13:55.892Z,100324.63
2023-01-29T03:16:37.086Z,100327.94
2023-01-29T03:19:16.254Z,100329.91
2023-01-29T03:21:59.058Z,100330.50
2023-01-29T03:24:59.675Z,100335.97
2023-01-29T03:27:56.179Z,100338.28
2023-01-29T03:30:49.174Z,100348.41
2023-01-29T03:33:44.743Z,100353.00
2023-01-29T03:36:21.445Z,100345.63
2023-01-29T03:38:54.508Z,100363.41
2023-01-29T03:41:32.393Z,100365.34
2023-01-29T03:44:14.996Z,100371.31
2023-01-29T03:46:54.557Z,100368.88
2023-01-29T03:49:39.180Z,100362.41
2023-01-29T03:52:21.299Z,100361.69
2023-01-29T03:55:06.903Z,100359.78
2023-01-29T03:57:45.539Z,100372.25
2023-01-29T04:00:25.974Z,100385.00
2023-01-29T04:03:13.738Z,100378.94
2023-01-29T04:05:52.436Z,100375.72
2023-01-29T04:08:35.200Z,100381.09
2023-01-29T04:11:15.219Z,100380.66
2023-01-29T04:13:48.521Z,100391.31
2023-01-29T04:16:28.220Z,100390.19
2023-01-29T04:19:19.887Z,100384.38
2023-01-29T04:22:05.160Z,100382.59
2023-01-29T04:24:38.842Z,100380.03
2023-01-29T04:27:28.239Z,100379.03
2023-01-29T04:30:08.778Z,100376.47
2023-01-29T04:32:58.980Z,100366.44
2023-01-29T04:35:40.241Z,100356.28
2023-01-29T04:38:26.931Z,100355.31
2023-01-29T04:41:06.593Z,100352.88
2023-01-29T04:43:48.408Z,100354.00
2023-01-29T04:46:28.208Z,100354.69
2023-01-29T04:49:11.565Z,100356.97
2023-01-29T04:51:52.433Z,100358.25
2023-01-29T04:54:36.671Z,100355.00
2023-01-29T04:57:17.216Z,100345.69
2023-01-29T04:59:56.764Z,100350.84
2023-01-29T05:02:31.242Z,100339.56
2023-01-29T05:05:06.990Z,100344.84
2023-01-29T05:07:41.653Z,100338.94
2023-01-29T05:10:19.128Z,100332.56
2023-01-29T05:12:56.808Z,100328.72
2023-01-29T05:15:35.668Z,100314.72
2023-01-29T05:18:10.208Z,100301.63
2023-01-29T05:20:45.339Z,100302.44
2023-01-29T05:23:19.321Z,100295.47
2023-01-29T05:25:53.710Z,100303.50
2023-01-29T05:28:25.463Z,100308.16
2023-01-29T05:30:59.388Z,100302.09
2023-01-29T05:33:32.759Z,100296.97
2023-01-29T05:36:07.015Z,100304.91
2023-01-29T05:38:40.985Z,100312.81
2023-01-29T05:41:16.419Z,100308.38
2023-01-29T05:43:49.298Z,100299.66
2023-01-29T05:46:22.145Z,100310.88
2023-01-29T05:48:54.961Z,100317.72
2023-01-29T05:51:27.750Z,100323.53
2023-01-29T05:54:00.699Z,100323.22
2023-01-29T05:56:35.077Z,100319.03
2023-01-29T05:59:08.562Z,100319.72
2023-01-29T06:01:41.445Z,100325.03
2023-01-29T06:04:14.277Z,100324.16
2023-01-29T06:06:47.152Z,100326.09
2023-01-29T06:09:20.027Z,100333.91
2023-01-29T06:11:54.183Z,100332.78
2023-01-29T06:14:27.201Z,100331.50
2023-01-29T06:17:00.001Z,100334.97
2023-01-29T06:19:32.807Z,100345.59
2023-01-29T06:22:05.830Z,100350.03
2023-01-29T06:24:38.633Z,100351.84
2023-01-29T06:27:12.742Z,100354.00
2023-01-29T06:29:45.685Z,100364.06
2023-01-29T06:32:19.908Z,100350.78
2023-01-29T06:34:53.237Z,100352.44
2023-01-29T06:37:26.028Z,100354.38
2023-01-29T06:39:59.069Z,100338.91
2023-01-29T06:42:35.669Z,100343.97
2023-01-29T06:45:09.771Z,100352.63
2023-01-29T06:47:42.558Z,100347.41
2023-01-29T06:50:15.769Z,100342.91
2023-01-29T06:52:49.807Z,100342.72
2023-01-29T06:55:22.602Z,100331.41
2023-01-29T06:57:56.795Z,100336.72
2023-01-29T07:00:31.444Z,100333.38
2023-01-29T07:03:05.041Z,100335.31
2023-01-29T07:05:38.114Z,100329.44
2023-01-29T07:08:10.913Z,100336.66
2023-01-29T07:10:43.718Z,100340.41
2023-01-29T07:13:18.232Z,100334.38
2023-01-29T07:15:51.063Z,100329.34
2023-01-29T07:18:23.945Z,100329.19
2023-01-29T07:20:57.187Z,100328.91
2023-01-29T07:23:29.967Z,100345.25
2023-01-29T07:26:04.289Z,100350.44
2023-01-29T07:28:39.922Z,100352.66
2023-01-29T07:31:15.445Z,100362.47
2023-01-29T07:33:48.860Z,100366.25
2023-01-29T07:36:21.689Z,100360.94
2023-01-29T07:38:54.460Z,100363.72
2023-01-29T07:41:27.225Z,100348.22
2023-01-29T07:44:01.987Z,100349.28
2023-01-29T07:46:34.793Z,100355.16
2023-01-29T07:49:07.582Z,100348.63
2023-01-29T07:51:40.415Z,100352.50
2023-01-29T07:54:13.208Z,100352.28
2023-01-29T07:56:46.334Z,100358.22
2023-01-29T07:59:20.520Z,100361.56
2023-01-29T08:01:53.416Z,100357.22
2023-01-29T08:04:26.671Z,100350.78
2023-01-29T08:06:59.530Z,100355.63
2023-01-29T08:09:32.748Z,100352.91
2023-01-29T08:12:06.266Z,100351.78
2023-01-29T08:14:40.479Z,100340.63
2023-01-29T08:17:13.415Z,100348.50
2023-01-29T08:19:46.244Z,100356.91
2023-01-29T08:22:19.370Z,100364.34
2023-01-29T08:24:59.876Z,100370.88
2023-01-29T08:27:33.290Z,100376.56
2023-01-29T08:30:09.075Z,100390.78
2023-01-29T08:32:42.003Z,100398.50
2023-01-29T08:35:14.898Z,100394.13
2023-01-29T08:37:53.932Z,100396.41
2023-01-29T08:40:28.125Z,100402.72
2023-01-29T08:43:02.578Z,100394.88
2023-01-29T08:45:39.256Z,100396.75
2023-01-29T08:48:12.481Z,100390.97
2023-01-29T08:50:45.453Z,100410.19
2023-01-29T08:53:19.857Z,100412.34
2023-01-29T08:55:53.428Z,100417.72
2023-01-29T08:58:26.395Z,100412.41
2023-01-29T09:01:08.789Z,100415.03
2023-01-29T09:03:43.751Z,100398.34
2023-01-29T09:06:16.695Z,100405.13
2023-01-29T09:08:49.814Z,100395.06
2023-01-29T09:11:22.712Z,100392.56
2023-01-29T09:13:55.493Z,100385.25
2023-01-29T09:16:29.718Z,100387.06
2023-01-29T09:19:02.515Z,100370.25
2023-01-29T09:21:35.431Z,100364.72
2023-01-29T09:24:10.855Z,100362.22
2023-01-29T09:26:43.689Z,100349.56
2023-01-29T09:29:16.681Z,100349.84
2023-01-29T09:31:50.878Z,100337.44
2023-01-29T09:34:23.684Z,100334.22
2023-01-29T09:36:56.441Z,100328.22
2023-01-29T09:39:29.619Z,100336.28
2023-01-29T09:42:09.195Z,100346.94
2023-01-29T09:44:55.403Z,100347.31
2023-01-29T09:47:30.892Z,100352.84
2023-01-29T09:50:08.914Z,100353.25
2023-01-29T09:52:47.295Z,100363.88
2023-01-29T09:55:26.001Z,100351.16
2023-01-29T09:58:02.525Z,100354.59
2023-01-29T10:00:41.589Z,100378.06
2023-01-29T10:03:30.882Z,100373.00
2023-01-29T10:06:22.190Z,100378.38
2023-01-29T10:09:17.929Z,100399.06
2023-01-29T10:12:03.350Z,100402.28
2023-01-29T10:14:46.242Z,100404.75
2023-01-29T10:17:36.706Z,100421.31
2023-01-29T10:20:43.210Z,100421.72
2023-01-29T10:23:22.748Z,100412.75
2023-01-29T10:25:56.184Z,100417.06
2023-01-29T10:28:35.807Z,100407.22
2023-01-29T10:31:13.923Z,100400.84
2023-01-29T10:34:02.101Z,100380.13
2023-01-29T10:36:43.747Z,100374.50
2023-01-29T10:39:19.156Z,100351.22
2023-01-29T10:42:07.182Z,100348.41
2023-01-29T10:44:51.595Z,100337.31
2023-01-29T10:47:47.948Z,100339.66
2023-01-29T10:50:33.413Z,100331.88
2023-01-29T10:53:20.995Z,100328.00
2023-01-29T10:56:07.916Z,100329.75
2023-01-29T10:58:52.555Z,100329.19
2023-01-29T11:01:26.748Z,100336.56
2023-01-29T11:04:03.369Z,100322.25
2023-01-29T11:06:37.725Z,100318.13
2023-01-29T11:09:21.412Z,100307.84
2023-01-29T11:11:59.180Z,100310.59
2023-01-29T11:14:38.440Z,100308.59
2023-01-29T11:17:16.734Z,100300.22
2023-01-29T11:19:52.001Z,100295.16
2023-01-29T11:22:26.840Z,100287.53
2023-01-29T11:25:16.535Z,100278.38
2023-01-29T11:27:51.329Z,100265.84
2023-01-29T11:30:26.790Z,100257.63
2023-01-29T11:33:08.748Z,100270.03
2023-01-29T11:35:41.531Z,100266.88
2023-01-29T11:38:23.675Z,100261.38
2023-01-29T11:41:07.790Z,100258.38
2023-01-29T11:43:40.606Z,100243.88
2023-01-29T11:46:16.256Z,100253.78
2023-01-29T11:48:52.057Z,100241.03
2023-01-29T11:51:27.421Z,100246.56
2023-01-29T11:54:03.300Z,100238.53
2023-01-29T11:56:43.704Z,100223.50
2023-01-29T11:59:27.295Z,100213.88
2023-01-29T12:02:07.699Z,100201.59
2023-01-29T12:04:41.335Z,100200.53
2023-01-29T12:07:18.991Z,100194.72
2023-01-29T12:09:55.515Z,100201.72
2023-01-29T12:12:39.367Z,100196.91
2023-01-29T12:15:22.151Z,100187.91
2023-01-29T12:18:03.376Z,100198.03
2023-01-29T12:20:39.848Z,100194.69
2023-01-29T12:23:33.746Z,100183.66
2023-01-29T12:26:10.691Z,100186.28
2023-01-29T12:28:54.777Z,100192.06
2023-01-29T12:31:37.961Z,100180.84
2023-01-29T12:34:21.891Z,100175.72
2023-01-29T12:37:00.732Z,100168.50
2023-01-29T12:39:33.771Z,100165.13
2023-01-29T12:42:17.830Z,100168.94
2023-01-29T12:44:55.873Z,100160.63
2023-01-29T12:47:34.696Z,100156.88
2023-01-29T12:50:15.745Z,100148.78
2023-01-29T12:52:54.067Z,100144.63
2023-01-29T12:55:33.786Z,100136.72
2023-01-29T12:58:13.687Z,100136.41
2023-01-29T13:00:52.602Z,100139.75
2023-01-29T13:03:30.998Z,100141.31
2023-01-29T13:06:09.669Z,100130.72
2023-01-29T13:08:46.448Z,100139.06
2023-01-29T13:11:23.563Z,100128.19
2023-01-29T13:14:01.712Z,100125.81
2023-01-29T13:16:41.956Z,100131.09
2023-01-29T13:19:24.282Z,100111.59
2023-01-29T13:22:01.054Z,100115.03
2023-01-29T13:24:40.120Z,100111.13
2023-01-29T13:27:23.014Z,100108.97
2023-01-29T13:29:57.334Z,100097.19
2023-01-29T13:32:34.000Z,100099.94
2023-01-29T13:35:15.258Z,100101.84
2023-01-29T13:37:51.024Z,100104.03
2023-01-29T13:40:26.951Z,100099.34
2023-01-29T13:43:00.341Z,100095.25
2023-01-29T13:45:37.134Z,100098.81
2023-01-29T13:48:21.054Z,100106.59
2023-01-29T13:50:56.349Z,100117.56
2023-01-29T13:53:35.052Z,100119.94
2023-01-29T13:56:42.996Z,100110.31
2023-01-29T13:59:23.824Z,100097.34
2023-01-29T14:02:05.185Z,100101.97
2023-01-29T14:04:39.463Z,100088.63
2023-01-29T14:08:00.404Z,100083.97
2023-01-29T14:10:37.736Z,100090.91
2023-01-29T14:13:28.983Z,100083.19
2023-01-29T14:16:29.376Z,100089.03
2023-01-29T14:19:03.693Z,100077.19
2023-01-29T14:21:39.101Z,100074.22
2023-01-29T14:24:19.645Z,100082.13
2023-01-29T14:26:56.291Z,100082.56
2023-01-29T14:29:35.408Z,100076.97
2023-01-29T14:32:20.378Z,100070.66
2023-01-29T14:35:00.820Z,100069.16
2023-01-29T14:37:40.625Z,100066.88
2023-01-29T14:40:22.838Z,100070.13
2023-01-29T14:43:00.989Z,100060.78
2023-01-29T14:45:35.140Z,100050.34
2023-01-29T14:48:39.627Z,100055.31
2023-01-29T14:51:15.603Z,100045.03
2023-01-29T14:53:59.499Z,100052.84
2023-01-29T14:56:36.537Z,100058.50
2023-01-29T14:59:17.430Z,100047.59
2023-01-29T15:01:55.748Z,100051.56
2023-01-29T15:04:33.380Z,100051.34
2023-01-29T15:07:16.557Z,100050.25
2023-01-29T15:10:01.313Z,100041.09
2023-01-29T15:12:47.199Z,100037.72
2023-01-29T15:15:27.465Z,100036.84
2023-01-29T15:18:03.124Z,100026.63
2023-01-29T15:20:37.621Z,100032.78
2023-01-29T15:23:26.641Z,100028.16
2023-01-29T15:26:03.252Z,100028.91
2023-01-29T15:28:36.974Z,100016.88
2023-01-29T15:31:14.638Z,100024.81
2023-01-29T15:33:51.893Z,100022.34
2023-01-29T15:36:27.502Z,100024.00
2023-01-29T15:39:17.253Z,100017.03
2023-01-29T15:41:52.719Z,100019.19
2023-01-29T15:44:25.720Z,100013.28
2023-01-29T15:47:02.321Z,100014.88
2023-01-29T15:49:37.426Z,100007.50
2023-01-29T15:52:18.518Z,100013.59
2023-01-29T15:54:52.366Z,100017.72
2023-01-29T15:57:30.503Z,100013.81
2023-01-29T16:00:04.697Z,100011.66
2023-01-29T16:02:43.704Z,100010.75
2023-01-29T16:05:19.665Z,100006.47
2023-01-29T16:07:53.608Z,100006.84
2023-01-29T16:10:29.273Z,100012.09
2023-01-29T16:13:04.955Z,100007.66
2023-01-29T16:15:40.279Z,100005.47
2023-01-29T16:18:22.746Z,100005.69
2023-01-29T16:20:57.294Z,100009.25
2023-01-29T16:23:34.832Z,100008.88
2023-01-29T16:26:10.332Z,100017.56
2023-01-29T16:28:46.038Z,100013.84
2023-01-29T16:31:24.702Z,99998.94
2023-01-29T16:33:58.756Z,100001.97
2023-01-29T16:36:31.741Z,99995.41
2023-01-29T16:39:14.960Z,100001.97
2023-01-29T16:42:20.352Z,100000.03
2023-01-29T16:44:57.722Z,99996.31
2023-01-29T16:47:34.218Z,99992.84
2023-01-29T16:50:36.170Z,99983.91
2023-01-29T16:53:14.165Z,99978.78
2023-01-29T16:55:49.771Z,99977.63
2023-01-29T16:58:25.940Z,99981.41
2023-01-29T17:01:03.816Z,99979.91
2023-01-29T17:03:40.276Z,99980.25
2023-01-29T17:06:19.517Z,99976.94
2023-01-29T17:08:53.314Z,99972.69
2023-01-29T17:11:31.059Z,99974.25
2023-01-29T17:14:06.922Z,99976.66
2023-01-29T17:16:51.356Z,99979.31
2023-01-29T17:19:25.554Z,99986.59
2023-01-29T17:21:59.091Z,99987.53
2023-01-29T17:24:32.555Z,99979.28
2023-01-29T17:27:05.425Z,99985.69
2023-01-29T17:29:38.163Z,99985.00
2023-01-29T17:32:12.684Z,99990.69
2023-01-29T17:34:46.306Z,99999.81
2023-01-29T17:37:20.187Z,99986.03
2023-01-29T17:39:52.951Z,99988.94
2023-01-29T17:42:25.739Z,99987.53
2023-01-29T17:44:58.448Z,99991.31
2023-01-29T17:47:32.604Z,99997.13
2023-01-29T17:50:17.533Z,99993.78
2023-01-29T17:52:50.524Z,99997.06
2023-01-29T17:55:23.397Z,99998.88
2023-01-29T17:57:56.156Z,99995.53
2023-01-29T18:00:28.959Z,99998.00
2023-01-29T18:03:03.105Z,100004.75
2023-01-29T18:05:36.071Z,100010.81
2023-01-29T18:08:16.575Z,100015.31
2023-01-29T18:10:49.314Z,100011.22
2023-01-29T18:13:22.118Z,100013.97
2023-01-29T18:15:55.585Z,100014.28
2023-01-29T18:18:29.756Z,100015.16
2023-01-29T18:21:02.504Z,100010.97
2023-01-29T18:23:35.280Z,100015.97
2023-01-29T18:26:08.399Z,100023.53
2023-01-29T18:28:43.434Z,100020.78
2023-01-29T18:31:16.215Z,100018.31
2023-01-29T18:33:50.432Z,100023.09
2023-01-29T18:36:23.467Z,100019.31
2023-01-29T18:38:56.832Z,100010.22
2023-01-29T18:41:29.669Z,100008.13
2023-01-29T18:44:02.638Z,100018.50
2023-01-29T18:46:35.433Z,100020.00
2023-01-29T18:49:10.709Z,100012.44
2023-01-29T18:51:43.468Z,100009.31
2023-01-29T18:54:18.380Z,100008.41
2023-01-29T18:57:13.843Z,100000.56
2023-01-29T18:59:45.209Z,100009.00
2023-01-29T19:02:19.602Z,100005.66
2023-01-29T19:04:53.833Z,100000.16
2023-01-29T19:07:26.729Z,99996.66
2023-01-29T19:09:59.772Z,99994.78
2023-01-29T19:12:33.777Z,99990.16
2023-01-29T19:15:07.978Z,99983.16
2023-01-29T19:17:40.724Z,99989.81
2023-01-29T19:20:15.609Z,99982.38
2023-01-29T19:22:48.696Z,99983.69
2023-01-29T19:25:21.839Z,99980.03
2023-01-29T19:27:54.685Z,99974.44
2023-01-29T19:30:27.478Z,99962.91
2023-01-29T19:33:00.420Z,99971.22
2023-01-29T19:35:34.596Z,99958.97
2023-01-29T19:38:07.508Z,99956.22
2023-01-29T19:40:40.341Z,99956.47
2023-01-29T19:43:15.267Z,99952.06
2023-01-29T19:45:50.843Z,99945.38
2023-01-29T19:48:23.940Z,99939.28
2023-01-29T19:50:59.891Z,99941.66
2023-01-29T19:53:32.734Z,99937.19
2023-01-29T19:56:07.730Z,99947.03
2023-01-29T19:58:40.585Z,99930.09
2023-01-29T20:01:16.267Z,99941.47
2023-01-29T20:03:50.539Z,99929.19
2023-01-29T20:06:26.928Z,99926.09
2023-01-29T20:09:02.177Z,99922.88
2023-01-29T20:11:35.181Z,99917.09
2023-01-29T20:14:07.921Z,99914.00
2023-01-29T20:16:40.935Z,99919.53
2023-01-29T20:19:17.900Z,99918.72
2023-01-29T20:21:52.242Z,99919.41
2023-01-29T20:24:26.396Z,99919.56
2023-01-29T20:26:59.961Z,99924.50
2023-01-29T20:29:32.826Z,99931.69
2023-01-29T20:32:07.918Z,99926.38
2023-01-29T20:34:41.321Z,99934.97
2023-01-29T20:37:15.472Z,99939.16
2023-01-29T20:39:48.423Z,99924.47
2023-01-29T20:42:21.234Z,99922.38
2023-01-29T20:44:54.056Z,99928.38
2023-01-29T20:47:26.902Z,99926.47
2023-01-29T20:49:59.802Z,99933.19
2023-01-29T20:52:34.006Z,99937.72
2023-01-29T20:55:11.088Z,99929.84
2023-01-29T20:57:44.177Z,99938.34
2023-01-29T21:00:37.222Z,99931.00
2023-01-29T21:03:10.114Z,99930.72
2023-01-29T21:05:43.061Z,99928.44
2023-01-29T21:08:17.347Z,99933.56
2023-01-29T21:10:50.610Z,99939.22
2023-01-29T21:13:23.667Z,99931.88
2023-01-29T21:15:56.519Z,99930.13
2023-01-29T21:18:30.018Z,99936.56
2023-01-29T21:21:02.822Z,99935.06
2023-01-29T21:23:36.994Z,99924.09
2023-01-29T21:26:09.892Z,99938.16
2023-01-29T21:28:42.692Z,99923.22
2023-01-29T21:31:16.931Z,99930.34
2023-01-29T21:33:49.976Z,99923.50
2023-01-29T21:36:22.755Z,99920.66
2023-01-29T21:38:59.544Z,99923.03
2023-01-29T21:41:46.277Z,99923.66
2023-01-29T21:44:19.087Z,99912.59
2023-01-29T21:46:51.893Z,99916.41
2023-01-29T21:49:25.023Z,99914.44
2023-01-29T21:51:57.919Z,99912.25
2023-01-29T21:54:35.476Z,99910.00
2023-01-29T21:57:12.845Z,99907.53
2023-01-29T21:59:47.364Z,99907.00
2023-01-29T22:02:27.658Z,99909.09
2023-01-29T22:05:17.745Z,99881.47
2023-01-29T22:07:51.521Z,99871.50
2023-01-29T22:10:25.915Z,99857.44
2023-01-29T22:13:00.810Z,99839.28
2023-01-29T22:15:33.703Z,99840.38
2023-01-29T22:18:06.811Z,99834.13
2023-01-29T22:20:39.655Z,99834.91
2023-01-29T22:23:12.753Z,99820.50
2023-01-29T22:25:46.976Z,99810.94
2023-01-29T22:28:19.926Z,99803.16
2023-01-29T22:30:52.761Z,99800.88
2023-01-29T22:33:25.596Z,99804.34
2023-01-29T22:35:58.713Z,99795.41
2023-01-29T22:38:32.002Z,99785.41
2023-01-29T22:41:06.250Z,99777.50
2023-01-29T22:43:40.953Z,99785.72
2023-01-29T22:46:13.958Z,99774.53
2023-01-29T22:48:46.816Z,99776.53
2023-01-29T22:51:19.625Z,99760.31
2023-01-29T22:53:55.600Z,99765.59
2023-01-29T22:56:31.167Z,99771.28
2023-01-29T22:59:04.074Z,99762.03
2023-01-29T23:01:36.850Z,99754.63
2023-01-29T23:04:09.650Z,99758.31
2023-01-29T23:06:42.459Z,99756.88
2023-01-29T23:09:15.297Z,99752.47
2023-01-29T23:11:49.478Z,99745.22
2023-01-29T23:14:22.345Z,99749.47
2023-01-29T23:16:55.136Z,99750.88
2023-01-29T23:19:28.102Z,99744.41
2023-01-29T23:22:01.016Z,99740.91
2023-01-29T23:24:33.905Z,99733.50
2023-01-29T23:27:15.904Z,99732.97
2023-01-29T23:29:50.101Z,99731.16
2023-01-29T23:32:23.297Z,99720.00
2023-01-29T23:34:56.070Z,99718.47
2023-01-29T23:37:28.947Z,99702.84
2023-01-29T23:40:01.724Z,99710.13
2023-01-29T23:42:35.888Z,99708.38
2023-01-29T23:45:09.751Z,99708.97
2023-01-29T23:47:42.539Z,99695.91
2023-01-29T23:50:15.791Z,99696.78
2023-01-29T23:52:48.726Z,99704.28
2023-01-29T23:55:21.518Z,99708.13
2023-01-29T23:57:56.158Z,99705.91
